Time;durP1;ratioP1;P1;durP2;ratioP2;P2;SDS_P1;SDS_P2;PMS_P1;PMS_P2;Temp;Humidity;BMP_temperature;BMP_pressure;BME280_temperature;BME280_humidity;BME280_pressure;Samples;Min_cycle;Max_cycle;Signal;HPM_P1;HPM_P2
2022/07/20 00:03:12;;;;;;;10.15;5.90;;;;;;;15.71;66.04;100993.17;1770452;79;21181;-58
2022/07/20 00:06:18;;;;;;;10.23;6.40;;;;;;;15.68;66.10;100992.15;1763154;80;21650;-58
2022/07/20 00:12:49;;;;;;;;;;;;;;;15.66;66.36;100990.64;1771068;80;21237;-57
2022/07/20 00:15:54;;;;;;;8.13;6.05;;;;;;;15.64;66.45;100992.22;1768430;80;20256;-58
2022/07/20 00:19:00;;;;;;;10.90;5.87;;;;;;;15.59;66.46;100984.17;1769029;80;21261;-57
2022/07/20 00:22:05;;;;;;;10.53;6.25;;;;;;;15.57;66.41;100982.16;1757671;81;21248;-57
2022/07/20 00:25:13;;;;;;;7.40;5.75;;;;;;;15.53;66.43;100978.05;1768453;81;21189;-57
2022/07/20 00:28:20;;;;;;;8.43;5.15;;;;;;;15.52;66.53;100991.02;1768646;80;21205;-57
2022/07/20 00:31:27;;;;;;;6.95;5.90;;;;;;;15.51;66.71;100987.91;1768442;80;21221;-57
2022/07/20 00:34:35;;;;;;;9.50;5.62;;;;;;;15.52;66.84;100986.02;1768977;80;21221;-55
2022/07/20 00:37:41;;;;;;;13.48;6.12;;;;;;;15.51;66.93;100987.05;1768410;81;21201;-57
2022/07/20 00:40:47;;;;;;;8.85;5.90;;;;;;;15.48;66.94;100981.41;1768357;81;21201;-56
2022/07/20 00:44:12;;;;;;;8.60;5.80;;;;;;;15.46;66.96;100986.25;1757652;81;21154;-58
2022/07/20 00:47:19;;;;;;;9.28;5.83;;;;;;;15.42;66.93;100986.31;1774870;79;21213;-59
2022/07/20 00:50:25;;;;;;;5.60;5.00;;;;;;;15.40;67.01;100987.02;1768369;81;21170;-58
2022/07/20 00:53:30;;;;;;;10.48;5.42;;;;;;;15.37;67.14;100990.14;1768393;81;21174;-58
2022/07/20 00:56:36;;;;;;;9.18;5.50;;;;;;;15.34;67.11;100985.00;1757413;81;21256;-58
2022/07/20 00:59:41;;;;;;;7.78;5.47;;;;;;;15.31;67.10;100982.64;1768999;80;21202;-58
2022/07/20 01:02:48;;;;;;;7.50;5.30;;;;;;;15.28;67.18;100978.89;1782702;79;21189;-58
2022/07/20 01:05:55;;;;;;;6.87;5.25;;;;;;;15.26;67.22;100974.08;1793938;79;21157;-58
2022/07/20 01:09:00;;;;;;;6.42;4.70;;;;;;;15.26;67.33;100976.83;1794731;79;21176;-58
2022/07/20 01:12:01;;;;;;;8.55;5.40;;;;;;;15.27;67.48;100979.91;1785778;79;21209;-58
2022/07/20 01:15:07;;;;;;;7.70;5.75;;;;;;;15.26;67.61;100974.08;1752498;79;21189;-58
2022/07/20 01:18:13;;;;;;;6.75;4.85;;;;;;;15.26;67.65;100981.48;1768891;80;21249;-57
2022/07/20 01:21:19;;;;;;;6.58;5.17;;;;;;;15.25;67.66;100975.64;1768460;80;21256;-57
2022/07/20 01:24:27;;;;;;;8.80;5.22;;;;;;;15.22;67.67;100974.14;1759408;80;21185;-58
2022/07/20 01:27:33;;;;;;;5.62;5.03;;;;;;;15.22;67.75;100970.52;1768703;80;21177;-56
2022/07/20 01:30:40;;;;;;;5.80;5.12;;;;;;;15.21;67.81;100972.92;1772268;79;21209;-56
2022/07/20 01:33:46;;;;;;;9.90;5.53;;;;;;;15.20;67.84;100974.84;1779467;80;21264;-57
2022/07/20 01:36:53;;;;;;;14.83;4.85;;;;;;;15.19;67.89;100964.84;1740818;82;21200;-56
2022/07/20 01:40:00;;;;;;;6.87;4.97;;;;;;;15.19;67.99;100971.73;1789142;79;21216;-57
2022/07/20 01:43:06;;;;;;;9.05;5.62;;;;;;;15.17;68.02;100967.47;1803118;79;21197;-57
2022/07/20 01:46:13;;;;;;;7.67;5.50;;;;;;;15.15;68.09;100969.55;1791317;79;21255;-58
2022/07/20 01:49:20;;;;;;;7.90;5.10;;;;;;;15.13;68.12;100965.61;1801468;79;21370;-58
2022/07/20 01:52:28;;;;;;;6.28;5.30;;;;;;;15.09;67.99;100964.30;1801415;79;21205;-57
2022/07/20 01:55:35;;;;;;;7.47;5.65;;;;;;;15.05;67.95;100962.95;1801353;79;21212;-57
2022/07/20 01:58:41;;;;;;;8.90;5.08;;;;;;;15.03;68.01;100973.85;1801453;79;21328;-57
2022/07/20 02:01:46;;;;;;;8.73;5.83;;;;;;;15.00;68.15;100970.94;1801320;79;21228;-57
2022/07/20 02:04:55;;;;;;;9.38;5.40;;;;;;;14.98;68.21;100972.50;1743425;81;21740;-58
2022/07/20 02:08:01;;;;;;;10.13;5.70;;;;;;;14.97;68.31;100971.31;1777925;80;21259;-56
2022/07/20 02:11:07;;;;;;;8.15;5.12;;;;;;;14.99;68.42;100973.37;1751831;81;21244;-56
2022/07/20 02:14:13;;;;;;;9.53;5.62;;;;;;;14.97;68.49;100974.08;1778002;80;21188;-56
2022/07/20 02:17:20;;;;;;;12.35;6.17;;;;;;;14.96;68.50;100979.27;1769768;81;21405;-56
2022/07/20 02:20:28;;;;;;;12.45;6.85;;;;;;;14.94;68.54;100974.45;1765699;81;21217;-57
2022/07/20 02:23:33;;;;;;;7.78;5.08;;;;;;;14.93;68.59;100980.52;1742538;82;21600;-57
2022/07/20 02:26:38;;;;;;;7.97;6.20;;;;;;;14.93;68.65;100979.65;1737288;82;21215;-56
2022/07/20 02:29:45;;;;;;;7.55;6.28;;;;;;;14.90;68.62;100975.89;1768483;81;21256;-58
2022/07/20 02:32:51;;;;;;;9.88;6.20;;;;;;;14.88;68.58;100972.46;1769263;80;21204;-57
2022/07/20 02:35:58;;;;;;;10.03;5.85;;;;;;;14.86;68.54;100985.06;1778118;80;21196;-57
2022/07/20 02:39:05;;;;;;;9.30;5.83;;;;;;;14.86;68.64;100980.92;1769294;81;21169;-56
2022/07/20 02:42:13;;;;;;;8.58;6.00;;;;;;;14.90;68.79;100981.41;1777803;80;21216;-57
2022/07/20 02:45:19;;;;;;;9.38;6.85;;;;;;;14.93;68.87;100992.92;1769463;81;21200;-57
2022/07/20 02:48:26;;;;;;;11.33;7.00;;;;;;;14.93;68.84;100987.41;1778051;80;21236;-57
2022/07/20 02:51:34;;;;;;;9.65;6.00;;;;;;;14.97;68.96;100989.23;1769378;81;21260;-57
2022/07/20 02:54:40;;;;;;;7.50;5.83;;;;;;;15.02;69.11;100988.15;1752784;80;21198;-57
2022/07/20 02:57:48;;;;;;;9.68;6.15;;;;;;;15.06;69.23;100983.98;1739058;82;21250;-57
2022/07/20 03:00:54;;;;;;;10.30;6.22;;;;;;;15.12;69.25;100983.22;1739123;82;21214;-57
2022/07/20 03:04:01;;;;;;;9.15;6.53;;;;;;;15.18;69.29;100978.82;1681886;81;21747;-57
2022/07/20 03:07:09;;;;;;;9.48;6.65;;;;;;;15.23;69.34;100974.46;1719759;83;21214;-57
2022/07/20 03:10:15;;;;;;;10.38;6.05;;;;;;;15.29;69.40;100973.69;1698411;83;21147;-57
2022/07/20 03:13:22;;;;;;;8.10;6.62;;;;;;;15.35;69.43;100972.91;1698818;83;21171;-57
2022/07/20 03:16:29;;;;;;;8.63;6.95;;;;;;;15.43;69.51;100977.53;1766260;81;21229;-57
2022/07/20 03:19:34;;;;;;;7.87;6.95;;;;;;;15.50;69.59;100975.17;1765661;81;21240;-57
2022/07/20 03:22:45;;;;;;;8.93;6.25;;;;;;;15.57;69.64;100973.88;1765621;81;21201;-57
2022/07/20 03:25:50;;;;;;;6.25;5.50;;;;;;;15.63;69.68;100976.72;1766064;80;21185;-58
2022/07/20 03:28:56;;;;;;;11.18;5.95;;;;;;;15.69;69.71;100976.45;1765681;81;21189;-59
2022/07/20 03:32:02;;;;;;;9.53;6.22;;;;;;;15.75;69.75;100961.87;1765794;81;21204;-60
2022/07/20 03:35:09;;;;;;;8.30;6.08;;;;;;;15.83;69.83;100965.38;1766411;81;21330;-59
2022/07/20 03:38:15;;;;;;;10.82;6.83;;;;;;;15.90;69.90;100962.14;1766215;81;21208;-60
2022/07/20 03:41:22;;;;;;;8.90;6.33;;;;;;;15.99;69.95;100966.51;1766173;81;21224;-59
2022/07/20 03:44:28;;;;;;;9.28;6.33;;;;;;;16.07;70.00;100966.90;1766220;81;21177;-59
2022/07/20 03:47:40;;;;;;;7.30;6.15;;;;;;;16.16;70.09;100971.23;1766384;81;21638;-59
2022/07/20 03:50:49;;;;;;;12.18;6.75;;;;;;;16.25;70.19;100969.52;1766240;81;21252;-60
2022/07/20 03:53:56;;;;;;;8.28;6.10;;;;;;;16.33;70.26;100972.14;1766324;81;21217;-58
2022/07/20 03:57:05;;;;;;;7.03;5.72;;;;;;;16.43;70.33;100969.91;1766308;81;21722;-58
2022/07/20 04:00:13;;;;;;;7.40;6.28;;;;;;;16.52;70.37;100973.95;1766393;81;21224;-59
2022/07/20 04:03:20;;;;;;;7.87;5.58;;;;;;;16.61;70.39;100963.05;1750620;81;21232;-59
2022/07/20 04:06:28;;;;;;;7.45;6.20;;;;;;;16.68;70.45;100967.58;1736030;81;21363;-59
2022/07/20 04:09:50;;;;;;;9.38;6.62;;;;;;;16.78;70.51;100968.09;1729870;83;21182;-59
2022/07/20 04:12:54;;;;;;;8.60;6.05;;;;;;;16.85;70.55;100964.85;1729445;83;21497;-59
2022/07/20 04:16:00;;;;;;;7.50;6.40;;;;;;;16.94;70.58;100964.15;1729538;83;21371;-59
2022/07/20 04:19:06;;;;;;;7.12;6.08;;;;;;;17.01;70.53;100955.37;1729451;83;21154;-59
2022/07/20 04:22:13;;;;;;;8.28;6.65;;;;;;;17.08;70.62;100951.58;1729789;81;21399;-60
2022/07/20 04:25:19;;;;;;;9.08;6.78;;;;;;;17.17;70.68;100949.52;1704379;83;21185;-60
2022/07/20 04:28:28;;;;;;;8.93;6.47;;;;;;;17.25;70.70;100952.11;1698810;84;21217;-61
2022/07/20 04:31:35;;;;;;;8.68;6.33;;;;;;;17.33;70.72;100947.80;1699754;83;21233;-61
2022/07/20 04:34:41;;;;;;;9.05;6.37;;;;;;;17.43;70.82;100944.09;1737688;81;21160;-61
2022/07/20 04:37:50;;;;;;;8.00;6.53;;;;;;;17.51;70.92;100946.19;1711271;82;21220;-59
2022/07/20 04:40:59;;;;;;;7.10;6.40;;;;;;;17.60;70.96;100946.32;1698349;84;21271;-59
2022/07/20 04:44:12;;;;;;;9.00;6.28;;;;;;;17.69;70.99;100941.47;1696703;83;21213;-60
2022/07/20 04:47:20;;;;;;;11.90;6.72;;;;;;;17.77;71.05;100935.73;1697292;84;21230;-59
2022/07/20 04:50:28;;;;;;;8.78;6.75;;;;;;;17.87;71.08;100945.86;1696763;84;21221;-59
2022/07/20 04:53:36;;;;;;;8.35;6.80;;;;;;;17.97;71.16;100946.84;1696751;84;21571;-58
2022/07/20 04:56:42;;;;;;;6.60;5.97;;;;;;;18.06;71.21;100941.45;1701741;83;21225;-58
2022/07/20 04:59:50;;;;;;;9.95;6.40;;;;;;;18.15;71.22;100939.66;1703063;81;21210;-57
2022/07/20 05:02:57;;;;;;;8.08;6.60;;;;;;;18.24;71.26;100943.92;1691035;83;21287;-58
2022/07/20 05:06:10;;;;;;;9.08;6.83;;;;;;;18.33;71.29;100932.94;1715856;82;21339;-58
2022/07/20 05:09:24;;;;;;;10.48;6.65;;;;;;;18.44;71.35;100937.88;1748070;80;21196;-58
2022/07/20 05:12:47;;;;;;;8.20;7.37;;;;;;;18.54;71.39;100935.53;1710924;81;21382;-57
2022/07/20 05:15:53;;;;;;;11.40;9.58;;;;;;;18.65;71.44;100936.27;1744230;80;21564;-59
2022/07/20 05:19:02;;;;;;;9.75;6.37;;;;;;;18.73;71.42;100931.89;1761388;81;21177;-60
2022/07/20 05:22:21;;;;;;;7.10;5.72;;;;;;;18.81;71.45;100933.05;1765662;80;21469;-55
2022/07/20 05:25:54;;;;;;;15.80;12.18;;;;;;;18.88;71.47;100938.07;1737542;81;22060;-57
2022/07/20 05:29:02;;;;;;;8.13;7.05;;;;;;;18.98;71.55;100926.53;1745495;80;21205;-57
2022/07/20 05:32:16;;;;;;;13.28;10.85;;;;;;;19.10;71.60;100923.39;1743188;81;21229;-57
2022/07/20 05:35:22;;;;;;;7.75;5.25;;;;;;;19.18;71.59;100919.84;1755812;80;21359;-57
2022/07/20 05:38:38;;;;;;;10.53;6.28;;;;;;;19.29;71.64;100915.03;1757284;81;21189;-58
2022/07/20 05:41:56;;;;;;;5.87;4.75;;;;;;;19.40;71.63;100914.87;1736724;81;21991;-58
2022/07/20 05:45:02;;;;;;;5.75;4.42;;;;;;;19.48;71.60;100920.18;1749611;80;21196;-59
2022/07/20 05:48:11;;;;;;;5.75;4.10;;;;;;;19.57;71.62;100911.90;1774223;80;21258;-60
2022/07/20 05:51:16;;;;;;;9.30;6.75;;;;;;;19.67;71.64;100910.89;1744122;81;21861;-59
2022/07/20 05:54:27;;;;;;;5.33;4.40;;;;;;;19.81;71.64;100904.71;1745787;81;21209;-58
2022/07/20 05:57:37;;;;;;;6.25;4.55;;;;;;;19.95;71.66;100911.88;1755392;81;21213;-61
2022/07/20 06:00:42;;;;;;;6.60;3.70;;;;;;;20.04;71.60;100907.78;1767375;80;21206;-59
2022/07/20 06:03:52;;;;;;;4.65;3.47;;;;;;;20.09;71.47;100904.63;1765485;80;21220;-60
2022/07/20 06:07:00;;;;;;;5.78;3.58;;;;;;;20.13;71.48;100905.90;1766393;80;21766;-58
2022/07/20 06:10:06;;;;;;;4.10;3.27;;;;;;;20.16;71.46;100904.61;1775859;80;21302;-59
2022/07/20 06:13:12;;;;;;;6.58;4.78;;;;;;;20.28;71.60;100907.00;1776878;80;21220;-60
2022/07/20 06:16:18;;;;;;;6.10;4.37;;;;;;;20.44;71.62;100919.78;1769606;80;21724;-59
2022/07/20 06:19:24;;;;;;;7.30;4.70;;;;;;;20.64;71.71;100907.93;1768483;80;21217;-58
2022/07/20 06:22:32;;;;;;;10.68;5.40;;;;;;;20.81;71.59;100908.20;1769249;80;21276;-59
2022/07/20 06:28:56;;;;;;;4.85;3.40;;;;;;;20.99;71.34;100897.14;1743564;81;21208;-57
2022/07/20 06:32:17;;;;;;;5.20;3.72;;;;;;;21.10;71.20;100895.51;1752941;81;21240;-59
2022/07/20 06:36:21;;;;;;;5.28;3.12;;;;;;;21.11;71.08;100892.48;1732221;81;21216;-52
2022/07/20 06:39:56;;;;;;;4.65;4.08;;;;;;;21.07;70.93;100882.91;1723641;83;21406;-58
2022/07/20 06:43:05;;;;;;;5.00;3.40;;;;;;;21.10;70.94;100885.23;1726577;82;21197;-58
2022/07/20 06:46:14;;;;;;;4.15;3.10;;;;;;;21.17;70.98;100890.73;1724038;82;21249;-59
2022/07/20 06:49:25;;;;;;;3.52;2.65;;;;;;;21.25;70.99;100882.89;1719572;83;21220;-51
2022/07/20 06:52:34;;;;;;;5.55;2.90;;;;;;;21.29;70.90;100877.17;1696703;82;21220;-52
2022/07/20 06:55:45;;;;;;;3.98;2.60;;;;;;;21.37;70.97;100867.11;1727707;82;21204;-52
2022/07/20 06:58:53;;;;;;;4.00;3.05;;;;;;;21.48;70.91;100864.92;1721752;82;21752;-52
2022/07/20 07:01:58;;;;;;;4.62;3.22;;;;;;;21.57;70.75;100859.33;1729087;82;21215;-52
2022/07/20 07:05:10;;;;;;;3.62;2.80;;;;;;;21.72;70.79;100854.16;1693489;84;21241;-55
2022/07/20 07:08:18;;;;;;;3.83;2.95;;;;;;;21.80;70.69;100860.83;1729353;80;21305;-56
2022/07/20 07:11:33;;;;;;;12.28;10.13;;;;;;;21.80;70.60;100853.03;1724925;82;21249;-54
2022/07/20 07:14:40;;;;;;;5.95;4.08;;;;;;;21.83;70.51;100855.34;1737579;81;21339;-57
2022/07/20 07:17:51;;;;;;;4.72;2.83;;;;;;;21.89;70.53;100851.06;1766666;79;21260;-53
2022/07/20 07:20:59;;;;;;;3.30;2.67;;;;;;;21.99;70.55;100851.88;1760352;80;21793;-50
2022/07/20 07:24:18;;;;;;;5.72;2.77;;;;;;;22.10;70.52;100841.28;1748178;81;21256;-54
2022/07/20 07:27:25;;;;;;;4.08;2.60;;;;;;;22.14;70.35;100839.17;1765832;80;21378;-54
2022/07/20 07:30:33;;;;;;;2.52;2.30;;;;;;;22.14;70.22;100834.13;1760545;81;21182;-52
2022/07/20 07:33:38;;;;;;;3.60;2.42;;;;;;;22.25;70.21;100826.88;1765530;81;21738;-52
2022/07/20 07:36:45;;;;;;;2.83;2.30;;;;;;;22.36;70.24;100824.65;1747385;81;21215;-52
2022/07/20 07:39:59;;;;;;;5.12;2.85;;;;;;;22.41;70.11;100824.74;1734705;82;21202;-56
2022/07/20 07:43:08;;;;;;;4.58;2.60;;;;;;;22.38;69.88;100821.91;1735618;82;21264;-56
2022/07/20 07:46:16;;;;;;;3.33;2.30;;;;;;;22.40;69.87;100816.08;1736243;82;21194;-56
2022/07/20 07:49:24;;;;;;;2.12;1.90;;;;;;;22.54;70.03;100816.17;1735964;82;21194;-57
2022/07/20 07:52:31;;;;;;;3.15;2.00;;;;;;;22.72;70.02;100803.48;1740579;81;21224;-56
2022/07/20 07:55:44;;;;;;;2.50;1.80;;;;;;;22.82;69.88;100805.95;1766465;80;21699;-56
2022/07/20 07:58:50;;;;;;;2.67;1.77;;;;;;;22.82;69.58;100799.50;1767098;80;21177;-56
2022/07/20 08:02:00;;;;;;;2.35;1.90;;;;;;;22.75;69.49;100792.69;1766082;80;21813;-57
2022/07/20 08:05:05;;;;;;;3.08;2.10;;;;;;;22.80;69.47;100786.36;1736782;82;21342;-58
2022/07/20 08:08:17;;;;;;;3.37;2.10;;;;;;;22.86;69.43;100780.64;1729200;81;21217;-57
2022/07/20 08:11:24;;;;;;;4.42;2.40;;;;;;;22.89;69.42;100777.89;1749461;80;21219;-60
2022/07/20 08:14:38;;;;;;;2.22;1.90;;;;;;;22.86;69.30;100778.39;1737071;82;21514;-57
2022/07/20 08:17:46;;;;;;;2.80;1.85;;;;;;;22.92;69.37;100779.66;1736697;82;21231;-56
2022/07/20 08:20:56;;;;;;;2.90;1.75;;;;;;;23.09;69.34;100769.93;1738660;81;21206;-56
2022/07/20 08:24:02;;;;;;;2.37;1.62;;;;;;;23.22;69.21;100764.06;1775604;80;21188;-60
2022/07/20 08:27:13;;;;;;;3.00;1.80;;;;;;;23.28;69.07;100761.69;1769762;79;21248;-56
2022/07/20 08:30:21;;;;;;;4.00;2.50;;;;;;;23.34;68.97;100753.73;1780821;79;21663;-57
2022/07/20 08:33:30;;;;;;;2.17;1.80;;;;;;;23.37;68.83;100757.42;1739233;81;21197;-57
2022/07/20 08:36:41;;;;;;;4.58;1.42;;;;;;;23.42;68.64;100749.14;1749669;81;21705;-57
2022/07/20 08:39:49;;;;;;;2.77;1.40;;;;;;;23.46;68.59;100746.13;1737427;82;21193;-56
2022/07/20 08:42:57;;;;;;;3.47;1.57;;;;;;;23.50;68.62;100745.37;1745250;81;21209;-58
2022/07/20 08:46:05;;;;;;;3.10;1.92;;;;;;;23.55;68.51;100741.81;1736639;82;21901;-57
2022/07/20 08:49:13;;;;;;;2.30;1.60;;;;;;;23.52;68.43;100742.32;1736361;82;21201;-54
2022/07/20 08:52:20;;;;;;;3.12;2.00;;;;;;;23.64;68.60;100736.13;1727191;81;21217;-54
2022/07/20 08:55:29;;;;;;;1.92;1.22;;;;;;;23.82;68.42;100723.28;1746394;81;21263;-56
2022/07/20 08:58:35;;;;;;;3.33;1.70;;;;;;;23.93;68.20;100725.15;1738990;80;21237;-55
2022/07/20 09:02:08;;;;;;;1.95;1.45;;;;;;;23.95;67.98;100717.36;1738710;81;21237;-53
2022/07/20 09:05:20;;;;;;;5.17;1.30;;;;;;;23.97;67.87;100708.20;1732824;81;21189;-54
2022/07/20 09:08:27;;;;;;;3.70;1.30;;;;;;;24.07;67.88;100709.74;1746564;80;21255;-54
2022/07/20 09:11:35;;;;;;;2.22;1.30;;;;;;;24.17;67.78;100694.52;1769365;79;21249;-53
2022/07/20 09:14:49;;;;;;;1.57;1.37;;;;;;;24.23;67.58;100696.28;1763662;79;21185;-53
2022/07/20 09:18:28;;;;;;;;;;;;;;;24.24;67.43;100683.15;1719705;83;21760;-48
2022/07/20 09:21:38;;;;;;;1.40;1.30;;;;;;;24.28;67.29;100672.58;1757135;81;20204;-51
2022/07/20 09:24:47;;;;;;;;;;;;;;;24.33;67.10;100665.66;1785522;79;21750;-53
2022/07/20 09:27:52;;;;;;;4.08;1.32;;;;;;;24.37;66.87;100657.02;1758629;79;20216;-51
2022/07/20 09:31:06;;;;;;;2.02;1.27;;;;;;;24.29;66.75;100659.44;1738313;81;21256;-49
2022/07/20 09:34:26;;;;;;;5.00;2.55;;;;;;;24.29;66.86;100658.86;1746936;81;21835;-52
2022/07/20 09:37:33;;;;;;;1.57;1.25;;;;;;;24.45;66.85;100652.37;1754239;81;21222;-50
2022/07/20 09:40:53;;;;;;;1.80;1.20;;;;;;;24.62;66.70;100647.58;1744402;81;21186;-49
2022/07/20 09:44:05;;;;;;;5.65;1.42;;;;;;;24.80;66.62;100639.42;1739859;80;21228;-50
2022/07/20 09:47:21;;;;;;;2.22;1.67;;;;;;;24.97;66.48;100639.59;1739865;81;21231;-50
2022/07/20 09:50:38;;;;;;;2.00;1.12;;;;;;;25.05;66.08;100650.33;1741914;81;21205;-59
2022/07/20 09:53:45;;;;;;;4.47;3.17;;;;;;;24.95;65.72;100630.63;1737288;82;21209;-55
2022/07/20 09:56:57;;;;;;;2.58;1.07;;;;;;;24.84;65.59;100629.38;1737061;82;21330;-55
2022/07/20 10:00:07;;;;;;;2.80;1.35;;;;;;;24.90;65.62;100619.36;1737873;82;21374;-50
2022/07/20 10:03:14;;;;;;;2.08;1.12;;;;;;;25.03;65.57;100616.15;1758299;80;21197;-50
2022/07/20 10:06:25;;;;;;;1.07;0.90;;;;;;;25.17;65.35;100600.28;1750867;81;21202;-51
2022/07/20 10:09:36;;;;;;;1.22;0.98;;;;;;;25.33;65.28;100604.38;1735331;82;21177;-50
2022/07/20 10:12:41;;;;;;;3.37;1.30;;;;;;;25.42;65.10;100603.37;1747211;80;21797;-50
2022/07/20 10:15:58;;;;;;;2.42;1.95;;;;;;;25.48;64.95;100599.48;1749159;80;21275;-49
2022/07/20 10:19:06;;;;;;;2.22;1.67;;;;;;;25.54;64.84;100601.22;1787764;79;21812;-51
2022/07/20 10:22:13;;;;;;;1.82;1.37;;;;;;;25.62;64.55;100581.94;1787630;79;21367;-51
2022/07/20 10:25:27;;;;;;;3.27;1.20;;;;;;;25.63;64.37;100572.41;1743572;79;21714;-51
2022/07/20 10:28:39;;;;;;;1.55;1.12;;;;;;;25.71;64.23;100564.03;1773849;79;21184;-49
2022/07/20 10:32:02;;;;;;;2.05;1.27;;;;;;;25.82;64.10;100553.16;1755942;79;22291;-51
2022/07/20 10:35:08;;;;;;;1.55;1.30;;;;;;;25.96;63.95;100555.77;1744235;81;21758;-52
2022/07/20 10:38:15;;;;;;;1.85;1.00;;;;;;;26.00;63.67;100540.98;1728283;82;21221;-52
2022/07/20 10:41:33;;;;;;;2.75;1.20;;;;;;;26.18;63.67;100541.03;1720427;80;21189;-51
2022/07/20 10:44:39;;;;;;;2.50;1.17;;;;;;;26.27;63.41;100540.23;1762650;79;21205;-51
2022/07/20 10:47:53;;;;;;;4.58;1.60;;;;;;;26.38;63.09;100534.11;1750048;80;21248;-53
2022/07/20 10:51:01;;;;;;;2.15;1.40;;;;;;;26.41;62.85;100537.22;1759626;79;21208;-53
2022/07/20 10:54:41;;;;;;;3.77;1.30;;;;;;;26.37;62.54;100532.41;1697031;83;21553;-51
2022/07/20 10:57:49;;;;;;;1.50;1.17;;;;;;;26.24;62.24;100532.94;1761208;79;21328;-52
2022/07/20 11:01:11;;;;;;;2.67;1.37;;;;;;;26.10;62.01;100533.16;1749907;80;21184;-56
2022/07/20 11:04:20;;;;;;;1.70;1.25;;;;;;;25.86;61.78;100516.45;1742907;79;21359;-56
2022/07/20 11:07:42;;;;;;;3.72;2.85;;;;;;;25.63;61.74;100510.70;1737108;82;21248;-55
2022/07/20 11:11:07;;;;;;;3.12;1.70;;;;;;;25.51;61.72;100506.42;1737310;82;21182;-56
2022/07/20 11:14:35;;;;;;;2.27;1.00;;;;;;;25.63;61.89;100501.44;1667105;84;21691;-55
2022/07/20 11:17:42;;;;;;;2.87;1.30;;;;;;;25.75;61.79;100495.08;1683067;84;21244;-56
2022/07/20 11:21:00;;;;;;;3.77;1.40;;;;;;;25.77;61.65;100478.80;1683266;85;21361;-54
2022/07/20 11:24:10;;;;;;;1.50;1.10;;;;;;;25.88;61.61;100472.97;1682053;85;21220;-54
2022/07/20 11:27:38;;;;;;;4.95;1.57;;;;;;;26.10;61.68;100477.03;1679681;84;21279;-53
2022/07/20 11:30:46;;;;;;;6.05;4.65;;;;;;;26.26;61.47;100465.56;1673315;84;21906;-53
2022/07/20 11:34:03;;;;;;;2.75;1.67;;;;;;;26.38;61.31;100462.52;1674450;84;21253;-53
2022/07/20 11:37:10;;;;;;;1.52;1.25;;;;;;;26.44;61.03;100451.56;1681399;85;21823;-53
2022/07/20 11:40:21;;;;;;;2.27;1.10;;;;;;;26.56;60.99;100445.70;1675999;83;21733;-53
2022/07/20 11:43:30;;;;;;;1.40;0.90;;;;;;;26.74;60.88;100453.59;1682983;80;21228;-53
2022/07/20 11:46:48;;;;;;;4.28;1.65;;;;;;;26.86;60.51;100440.95;1664497;84;21213;-53
2022/07/20 11:49:54;;;;;;;2.15;1.30;;;;;;;26.94;60.18;100431.96;1683236;85;22021;-54
2022/07/20 11:53:03;;;;;;;2.70;1.40;;;;;;;27.00;59.85;100436.48;1694685;81;21288;-53
2022/07/20 11:56:15;;;;;;;1.80;1.22;;;;;;;26.87;59.49;100427.20;1741794;80;21201;-53
2022/07/20 11:59:22;;;;;;;2.37;1.12;;;;;;;26.86;59.46;100431.70;1741718;82;21587;-53
2022/07/20 12:02:30;;;;;;;10.13;1.80;;;;;;;26.91;59.36;100426.91;1741465;82;21201;-53
2022/07/20 12:05:38;;;;;;;3.20;1.40;;;;;;;27.05;59.23;100408.34;1742190;82;21789;-52
2022/07/20 12:08:47;;;;;;;2.85;1.47;;;;;;;27.15;58.96;100407.48;1741877;82;21292;-52
2022/07/20 12:12:44;;;;;;;1.80;1.50;;;;;;;27.16;58.75;100399.35;1741428;82;21784;-52
2022/07/20 12:15:29;;;;;;;2.60;1.42;;;;;;;27.04;58.44;100395.42;1723994;82;21710;-53
2022/07/20 12:18:55;;;;;;;2.40;1.57;;;;;;;27.11;58.44;100385.30;1710848;84;21391;-54
2022/07/20 12:22:07;;;;;;;3.42;1.30;;;;;;;27.19;58.24;100392.61;1698092;83;21540;-51
2022/07/20 12:25:16;;;;;;;3.83;1.60;;;;;;;27.11;57.76;100381.94;1694464;83;21284;-53
2022/07/20 12:28:37;;;;;;;4.35;1.57;;;;;;;26.94;57.59;100374.35;1711146;83;21215;-51
2022/07/20 12:31:45;;;;;;;1.40;1.15;;;;;;;26.95;57.59;100372.39;1711752;83;21365;-52
2022/07/20 12:34:59;;;;;;;4.60;1.75;;;;;;;26.98;57.38;100364.80;1711394;84;21325;-51
2022/07/20 12:38:08;;;;;;;3.40;1.40;;;;;;;26.87;57.01;100364.53;1711602;83;21231;-52
2022/07/20 12:41:19;;;;;;;3.98;1.62;;;;;;;26.84;57.04;100349.10;1711439;82;21816;-52
2022/07/20 12:44:37;;;;;;;2.20;1.60;;;;;;;26.86;56.98;100339.80;1704102;83;21230;-55
2022/07/20 12:47:48;;;;;;;2.02;1.40;;;;;;;26.80;56.76;100337.31;1713000;83;21222;-55
2022/07/20 12:50:59;;;;;;;3.17;1.60;;;;;;;26.75;56.54;100335.32;1683461;83;21742;-55
2022/07/20 12:54:09;;;;;;;3.47;1.37;;;;;;;26.72;56.46;100331.67;1707147;82;21183;-55
2022/07/20 12:57:17;;;;;;;1.92;1.50;;;;;;;26.80;56.51;100319.05;1710573;82;21254;-55
2022/07/20 13:00:26;;;;;;;3.33;1.35;;;;;;;26.84;56.32;100302.73;1711802;83;21199;-55
2022/07/20 13:03:34;;;;;;;2.80;1.82;;;;;;;26.90;56.14;100303.00;1712037;84;21202;-54
2022/07/20 13:06:44;;;;;;;2.50;1.67;;;;;;;26.95;55.89;100294.56;1710418;84;21385;-55
2022/07/20 13:09:52;;;;;;;3.10;1.57;;;;;;;26.87;55.60;100290.08;1710004;84;21228;-54
2022/07/20 13:12:58;;;;;;;3.55;1.70;;;;;;;26.85;55.63;100294.58;1710863;84;21271;-55
2022/07/20 13:16:05;;;;;;;3.52;1.75;;;;;;;26.91;55.49;100296.24;1711589;83;21738;-53
2022/07/20 13:19:13;;;;;;;2.83;1.80;;;;;;;26.91;55.36;100289.22;1712467;82;21147;-55
2022/07/20 13:22:19;;;;;;;4.67;2.83;;;;;;;26.92;55.31;100274.06;1693762;83;21238;-54
2022/07/20 13:25:26;;;;;;;1.90;1.60;;;;;;;26.94;55.17;100274.59;1710817;84;21293;-54
2022/07/20 13:28:34;;;;;;;2.87;1.72;;;;;;;26.94;54.97;100273.77;1694841;82;21275;-55
2022/07/20 13:31:41;;;;;;;2.37;1.90;;;;;;;26.93;54.87;100265.05;1708793;82;21393;-56
2022/07/20 13:34:52;;;;;;;4.15;1.77;;;;;;;26.88;54.77;100246.23;1693854;83;21321;-55
2022/07/20 13:38:04;;;;;;;4.20;1.70;;;;;;;26.86;54.71;100240.64;1710835;82;21258;-54
2022/07/20 13:41:14;;;;;;;6.33;2.52;;;;;;;26.84;54.57;100224.07;1711578;83;21314;-54
2022/07/20 13:44:24;;;;;;;5.40;2.00;;;;;;;26.78;54.40;100218.20;1705449;82;21272;-54
2022/07/20 13:47:30;;;;;;;2.05;1.85;;;;;;;26.68;54.36;100206.98;1710462;84;21240;-55
2022/07/20 13:50:42;;;;;;;4.62;2.20;;;;;;;26.66;54.30;100203.61;1664398;83;21782;-55
2022/07/20 13:53:53;;;;;;;3.33;2.30;;;;;;;26.68;54.30;100198.55;1710779;84;21206;-55
2022/07/20 13:57:00;;;;;;;18.85;15.60;;;;;;;26.77;54.22;100196.83;1681329;83;21828;-55
2022/07/20 14:00:05;;;;;;;5.28;2.10;;;;;;;26.84;54.01;100187.55;1681228;85;21208;-54
2022/07/20 14:03:15;;;;;;;5.42;3.33;;;;;;;26.90;53.87;100178.52;1681820;84;21260;-56
2022/07/20 14:06:22;;;;;;;7.75;4.30;;;;;;;26.91;53.79;100181.04;1684512;83;21264;-57
2022/07/20 14:09:30;;;;;;;5.53;3.05;;;;;;;26.94;53.74;100170.62;1674820;84;21852;-55
2022/07/20 14:12:38;;;;;;;3.08;1.98;;;;;;;26.94;53.65;100162.20;1653349;86;21797;-56
2022/07/20 14:15:48;;;;;;;3.85;2.05;;;;;;;26.99;53.52;100141.69;1653741;86;21772;-57
2022/07/20 14:18:58;;;;;;;3.10;1.85;;;;;;;26.96;53.39;100129.03;1654523;86;21197;-57
2022/07/20 14:22:07;;;;;;;2.90;1.90;;;;;;;27.00;53.36;100111.89;1655306;86;21252;-57
2022/07/20 14:25:17;;;;;;;4.20;2.08;;;;;;;27.09;53.26;100108.73;1655455;86;21785;-58
2022/07/20 14:28:26;;;;;;;3.77;2.30;;;;;;;27.16;53.13;100097.98;1656068;84;21225;-57
2022/07/20 14:31:36;;;;;;;2.95;1.95;;;;;;;27.28;53.14;100097.11;1677711;85;21280;-57
2022/07/20 14:34:44;;;;;;;3.58;2.17;;;;;;;27.23;52.81;100097.66;1680065;83;21217;-56
2022/07/20 14:37:57;;;;;;;7.92;2.75;;;;;;;27.00;52.70;100086.59;1655566;86;21934;-56
2022/07/20 14:41:12;;;;;;;4.08;2.55;;;;;;;26.79;52.65;100082.22;1678666;83;21250;-56
2022/07/20 14:44:18;;;;;;;6.25;3.52;;;;;;;26.64;52.69;100080.02;1657322;84;21213;-57
2022/07/20 14:47:28;;;;;;;5.30;2.87;;;;;;;26.55;52.70;100070.49;1712285;82;21220;-57
2022/07/20 14:50:35;;;;;;;3.87;2.80;;;;;;;26.44;52.70;100063.53;1710495;84;21795;-58